sensor_id;sensor_type;location;lat;lon;timestamp;temperature;humidity
25108;DHT22;13090;53.422;7.670;2023-11-18T00:05:39;5.10;91.70
25108;DHT22;13090;53.422;7.670;2023-11-18T00:11:20;5.10;91.70
25108;DHT22;13090;53.422;7.670;2023-11-18T00:17:00;5.10;91.90
25108;DHT22;13090;53.422;7.670;2023-11-18T00:22:41;5.10;92.10
25108;DHT22;13090;53.422;7.670;2023-11-18T00:28:23;5.10;92.20
25108;DHT22;13090;53.422;7.670;2023-11-18T00:34:03;5.10;92.60
25108;DHT22;13090;53.422;7.670;2023-11-18T00:39:44;5.10;92.60
25108;DHT22;13090;53.422;7.670;2023-11-18T00:45:25;5.20;92.70
25108;DHT22;13090;53.422;7.670;2023-11-18T00:51:06;5.30;92.60
25108;DHT22;13090;53.422;7.670;2023-11-18T00:56:46;5.40;92.90
25108;DHT22;13090;53.422;7.670;2023-11-18T01:02:28;5.50;92.70
25108;DHT22;13090;53.422;7.670;2023-11-18T01:08:08;5.60;93.10
25108;DHT22;13090;53.422;7.670;2023-11-18T01:13:48;5.60;93.40
25108;DHT22;13090;53.422;7.670;2023-11-18T01:19:30;5.70;93.70
25108;DHT22;13090;53.422;7.670;2023-11-18T01:25:10;5.80;93.70
25108;DHT22;13090;53.422;7.670;2023-11-18T01:30:50;5.80;93.40
25108;DHT22;13090;53.422;7.670;2023-11-18T01:36:32;5.90;93.40
25108;DHT22;13090;53.422;7.670;2023-11-18T01:42:12;6.00;93.30
25108;DHT22;13090;53.422;7.670;2023-11-18T01:47:53;6.10;93.30
25108;DHT22;13090;53.422;7.670;2023-11-18T01:53:34;6.20;93.20
25108;DHT22;13090;53.422;7.670;2023-11-18T01:59:16;6.30;92.90
25108;DHT22;13090;53.422;7.670;2023-11-18T02:04:57;6.30;93.20
25108;DHT22;13090;53.422;7.670;2023-11-18T02:10:46;6.40;93.10
25108;DHT22;13090;53.422;7.670;2023-11-18T02:16:28;6.40;93.10
25108;DHT22;13090;53.422;7.670;2023-11-18T02:22:08;6.40;93.10
25108;DHT22;13090;53.422;7.670;2023-11-18T02:27:50;6.40;93.30
25108;DHT22;13090;53.422;7.670;2023-11-18T02:33:35;6.40;93.40
25108;DHT22;13090;53.422;7.670;2023-11-18T02:39:25;6.40;93.50
25108;DHT22;13090;53.422;7.670;2023-11-18T02:45:11;6.40;93.70
25108;DHT22;13090;53.422;7.670;2023-11-18T02:50:51;6.50;93.00
25108;DHT22;13090;53.422;7.670;2023-11-18T02:56:31;6.50;93.20
25108;DHT22;13090;53.422;7.670;2023-11-18T03:02:13;6.50;93.30
25108;DHT22;13090;53.422;7.670;2023-11-18T03:07:53;6.50;93.20
25108;DHT22;13090;53.422;7.670;2023-11-18T03:13:33;6.50;93.30
25108;DHT22;13090;53.422;7.670;2023-11-18T03:19:15;6.50;93.20
25108;DHT22;13090;53.422;7.670;2023-11-18T03:24:55;6.50;93.40
25108;DHT22;13090;53.422;7.670;2023-11-18T03:30:35;6.50;93.00
25108;DHT22;13090;53.422;7.670;2023-11-18T03:36:17;6.40;93.00
25108;DHT22;13090;53.422;7.670;2023-11-18T03:41:57;6.40;93.10
25108;DHT22;13090;53.422;7.670;2023-11-18T03:47:37;6.40;93.40
25108;DHT22;13090;53.422;7.670;2023-11-18T03:53:18;6.30;93.50
25108;DHT22;13090;53.422;7.670;2023-11-18T03:58:59;6.30;94.00
25108;DHT22;13090;53.422;7.670;2023-11-18T04:04:40;6.30;93.50
25108;DHT22;13090;53.422;7.670;2023-11-18T04:10:21;6.20;93.90
25108;DHT22;13090;53.422;7.670;2023-11-18T04:16:01;6.20;93.90
25108;DHT22;13090;53.422;7.670;2023-11-18T04:21:42;6.20;95.10
25108;DHT22;13090;53.422;7.670;2023-11-18T04:27:23;6.10;94.90
25108;DHT22;13090;53.422;7.670;2023-11-18T04:33:04;6.10;94.80
25108;DHT22;13090;53.422;7.670;2023-11-18T04:38:44;6.10;94.70
25108;DHT22;13090;53.422;7.670;2023-11-18T04:44:25;6.20;94.80
25108;DHT22;13090;53.422;7.670;2023-11-18T04:50:06;6.20;94.50
25108;DHT22;13090;53.422;7.670;2023-11-18T04:55:46;6.20;95.00
25108;DHT22;13090;53.422;7.670;2023-11-18T05:01:28;6.20;95.50
25108;DHT22;13090;53.422;7.670;2023-11-18T05:07:08;6.20;95.10
25108;DHT22;13090;53.422;7.670;2023-11-18T05:12:48;6.20;95.10
25108;DHT22;13090;53.422;7.670;2023-11-18T05:18:30;6.20;94.60
25108;DHT22;13090;53.422;7.670;2023-11-18T05:24:10;6.20;94.70
25108;DHT22;13090;53.422;7.670;2023-11-18T05:29:51;6.30;95.20
25108;DHT22;13090;53.422;7.670;2023-11-18T05:35:32;6.20;95.30
25108;DHT22;13090;53.422;7.670;2023-11-18T05:41:13;6.30;94.90
25108;DHT22;13090;53.422;7.670;2023-11-18T05:46:53;6.30;94.80
25108;DHT22;13090;53.422;7.670;2023-11-18T05:52:34;6.30;94.40
25108;DHT22;13090;53.422;7.670;2023-11-18T05:58:15;6.30;94.50
25108;DHT22;13090;53.422;7.670;2023-11-18T06:03:55;6.30;94.60
25108;DHT22;13090;53.422;7.670;2023-11-18T06:09:37;6.30;94.50
25108;DHT22;13090;53.422;7.670;2023-11-18T06:15:17;6.30;94.60
25108;DHT22;13090;53.422;7.670;2023-11-18T06:20:57;6.30;94.80
25108;DHT22;13090;53.422;7.670;2023-11-18T06:26:39;6.20;94.40
25108;DHT22;13090;53.422;7.670;2023-11-18T06:32:19;6.20;94.40
25108;DHT22;13090;53.422;7.670;2023-11-18T06:38:02;6.10;94.20
25108;DHT22;13090;53.422;7.670;2023-11-18T06:43:45;6.10;94.10
25108;DHT22;13090;53.422;7.670;2023-11-18T06:49:25;6.10;94.00
25108;DHT22;13090;53.422;7.670;2023-11-18T06:55:06;6.00;94.10
25108;DHT22;13090;53.422;7.670;2023-11-18T07:00:48;6.00;94.30
25108;DHT22;13090;53.422;7.670;2023-11-18T07:06:28;5.90;94.50
25108;DHT22;13090;53.422;7.670;2023-11-18T07:12:09;5.90;94.80
25108;DHT22;13090;53.422;7.670;2023-11-18T07:17:50;5.80;95.10
25108;DHT22;13090;53.422;7.670;2023-11-18T07:23:34;5.70;95.20
25108;DHT22;13090;53.422;7.670;2023-11-18T07:29:14;5.70;95.20
25108;DHT22;13090;53.422;7.670;2023-11-18T07:34:55;5.70;94.80
25108;DHT22;13090;53.422;7.670;2023-11-18T07:40:35;5.60;94.90
25108;DHT22;13090;53.422;7.670;2023-11-18T07:46:16;5.60;94.60
25108;DHT22;13090;53.422;7.670;2023-11-18T07:51:58;5.60;94.90
25108;DHT22;13090;53.422;7.670;2023-11-18T07:57:37;5.60;94.90
25108;DHT22;13090;53.422;7.670;2023-11-18T08:03:18;5.60;95.10
25108;DHT22;13090;53.422;7.670;2023-11-18T08:09:01;5.70;94.90
25108;DHT22;13090;53.422;7.670;2023-11-18T08:14:42;5.70;94.70
25108;DHT22;13090;53.422;7.670;2023-11-18T08:20:22;5.80;94.70
25108;DHT22;13090;53.422;7.670;2023-11-18T08:26:05;5.80;94.80
25108;DHT22;13090;53.422;7.670;2023-11-18T08:31:49;5.90;94.60
25108;DHT22;13090;53.422;7.670;2023-11-18T08:37:31;6.00;95.20
25108;DHT22;13090;53.422;7.670;2023-11-18T08:43:12;6.10;94.70
25108;DHT22;13090;53.422;7.670;2023-11-18T08:48:52;6.10;94.60
25108;DHT22;13090;53.422;7.670;2023-11-18T08:54:34;6.20;94.70
25108;DHT22;13090;53.422;7.670;2023-11-18T09:00:17;6.30;94.70
25108;DHT22;13090;53.422;7.670;2023-11-18T09:05:59;6.30;94.80
25108;DHT22;13090;53.422;7.670;2023-11-18T09:11:39;6.40;94.70
25108;DHT22;13090;53.422;7.670;2023-11-18T09:17:21;6.40;94.80
25108;DHT22;13090;53.422;7.670;2023-11-18T09:23:02;6.50;94.70
25108;DHT22;13090;53.422;7.670;2023-11-18T09:28:42;6.50;94.70
25108;DHT22;13090;53.422;7.670;2023-11-18T09:34:25;6.50;94.60
25108;DHT22;13090;53.422;7.670;2023-11-18T09:40:07;6.50;94.50
25108;DHT22;13090;53.422;7.670;2023-11-18T09:45:48;6.50;94.70
25108;DHT22;13090;53.422;7.670;2023-11-18T09:51:37;6.60;94.50
25108;DHT22;13090;53.422;7.670;2023-11-18T09:57:25;6.60;94.40
25108;DHT22;13090;53.422;7.670;2023-11-18T10:03:07;6.60;94.30
25108;DHT22;13090;53.422;7.670;2023-11-18T10:08:51;6.70;94.40
25108;DHT22;13090;53.422;7.670;2023-11-18T10:14:33;6.80;94.40
25108;DHT22;13090;53.422;7.670;2023-11-18T10:20:13;6.90;94.30
25108;DHT22;13090;53.422;7.670;2023-11-18T10:25:56;6.90;94.20
25108;DHT22;13090;53.422;7.670;2023-11-18T10:31:38;7.00;94.10
25108;DHT22;13090;53.422;7.670;2023-11-18T10:37:19;7.00;94.10
25108;DHT22;13090;53.422;7.670;2023-11-18T10:43:01;7.10;94.00
25108;DHT22;13090;53.422;7.670;2023-11-18T10:48:44;7.10;94.00
25108;DHT22;13090;53.422;7.670;2023-11-18T10:54:24;7.10;94.10
25108;DHT22;13090;53.422;7.670;2023-11-18T11:00:08;7.20;94.10
25108;DHT22;13090;53.422;7.670;2023-11-18T11:05:49;7.20;94.10
25108;DHT22;13090;53.422;7.670;2023-11-18T11:11:46;7.30;94.00
25108;DHT22;13090;53.422;7.670;2023-11-18T11:17:29;7.40;94.10
25108;DHT22;13090;53.422;7.670;2023-11-18T11:23:17;7.40;94.00
25108;DHT22;13090;53.422;7.670;2023-11-18T11:29:04;7.50;94.00
25108;DHT22;13090;53.422;7.670;2023-11-18T11:34:53;7.50;94.00
25108;DHT22;13090;53.422;7.670;2023-11-18T11:40:34;7.50;93.80
25108;DHT22;13090;53.422;7.670;2023-11-18T11:46:15;7.50;93.80
25108;DHT22;13090;53.422;7.670;2023-11-18T11:52:02;7.50;93.90
25108;DHT22;13090;53.422;7.670;2023-11-18T11:57:50;7.50;93.80
25108;DHT22;13090;53.422;7.670;2023-11-18T12:03:31;7.50;93.90
25108;DHT22;13090;53.422;7.670;2023-11-18T12:09:13;7.50;93.80
25108;DHT22;13090;53.422;7.670;2023-11-18T12:14:55;7.50;93.90
25108;DHT22;13090;53.422;7.670;2023-11-18T12:20:38;7.50;93.90
25108;DHT22;13090;53.422;7.670;2023-11-18T12:26:39;7.50;93.90
25108;DHT22;13090;53.422;7.670;2023-11-18T12:38:54;7.50;94.10
25108;DHT22;13090;53.422;7.670;2023-11-18T12:44:59;7.50;94.30
25108;DHT22;13090;53.422;7.670;2023-11-18T12:50:46;7.40;94.20
25108;DHT22;13090;53.422;7.670;2023-11-18T12:56:26;7.40;94.50
25108;DHT22;13090;53.422;7.670;2023-11-18T13:02:09;7.40;94.60
25108;DHT22;13090;53.422;7.670;2023-11-18T13:07:50;7.50;94.30
25108;DHT22;13090;53.422;7.670;2023-11-18T13:13:31;7.50;94.20
25108;DHT22;13090;53.422;7.670;2023-11-18T13:19:23;7.60;94.40
25108;DHT22;13090;53.422;7.670;2023-11-18T13:25:04;7.60;94.40
25108;DHT22;13090;53.422;7.670;2023-11-18T13:30:45;7.60;94.70
25108;DHT22;13090;53.422;7.670;2023-11-18T13:36:26;7.60;94.50
25108;DHT22;13090;53.422;7.670;2023-11-18T13:42:23;7.60;94.40
25108;DHT22;13090;53.422;7.670;2023-11-18T13:48:05;7.60;94.40
25108;DHT22;13090;53.422;7.670;2023-11-18T13:53:49;7.60;94.40
25108;DHT22;13090;53.422;7.670;2023-11-18T13:59:29;7.60;94.30
25108;DHT22;13090;53.422;7.670;2023-11-18T14:05:16;7.60;94.20
25108;DHT22;13090;53.422;7.670;2023-11-18T14:11:02;7.50;94.20
25108;DHT22;13090;53.422;7.670;2023-11-18T14:16:51;7.60;94.40
25108;DHT22;13090;53.422;7.670;2023-11-18T14:22:31;7.60;94.50
25108;DHT22;13090;53.422;7.670;2023-11-18T14:28:13;7.60;94.40
25108;DHT22;13090;53.422;7.670;2023-11-18T14:33:54;7.60;94.40
25108;DHT22;13090;53.422;7.670;2023-11-18T14:39:34;7.60;94.40
25108;DHT22;13090;53.422;7.670;2023-11-18T14:45:16;7.60;94.50
25108;DHT22;13090;53.422;7.670;2023-11-18T14:50:57;7.60;95.00
25108;DHT22;13090;53.422;7.670;2023-11-18T14:56:37;7.60;94.80
25108;DHT22;13090;53.422;7.670;2023-11-18T15:02:19;7.60;94.80
25108;DHT22;13090;53.422;7.670;2023-11-18T15:08:00;7.60;95.00
25108;DHT22;13090;53.422;7.670;2023-11-18T15:13:40;7.60;95.00
25108;DHT22;13090;53.422;7.670;2023-11-18T15:19:22;7.50;95.20
25108;DHT22;13090;53.422;7.670;2023-11-18T15:25:02;7.60;95.20
25108;DHT22;13090;53.422;7.670;2023-11-18T15:30:43;7.60;95.30
25108;DHT22;13090;53.422;7.670;2023-11-18T15:36:24;7.60;95.10
25108;DHT22;13090;53.422;7.670;2023-11-18T15:42:05;7.70;95.20
25108;DHT22;13090;53.422;7.670;2023-11-18T15:47:45;7.70;95.30
25108;DHT22;13090;53.422;7.670;2023-11-18T15:53:27;7.60;95.40
25108;DHT22;13090;53.422;7.670;2023-11-18T15:59:07;7.60;95.20
25108;DHT22;13090;53.422;7.670;2023-11-18T16:04:47;7.70;95.30
25108;DHT22;13090;53.422;7.670;2023-11-18T16:10:29;7.70;95.30
25108;DHT22;13090;53.422;7.670;2023-11-18T16:16:11;7.70;95.50
25108;DHT22;13090;53.422;7.670;2023-11-18T16:21:51;7.70;95.90
25108;DHT22;13090;53.422;7.670;2023-11-18T16:27:33;7.70;96.00
25108;DHT22;13090;53.422;7.670;2023-11-18T16:33:13;7.70;96.20
25108;DHT22;13090;53.422;7.670;2023-11-18T16:38:53;7.70;95.70
25108;DHT22;13090;53.422;7.670;2023-11-18T16:44:35;7.80;95.90
25108;DHT22;13090;53.422;7.670;2023-11-18T16:50:17;7.80;96.00
25108;DHT22;13090;53.422;7.670;2023-11-18T16:55:57;7.80;95.90
25108;DHT22;13090;53.422;7.670;2023-11-18T17:01:39;7.90;96.10
25108;DHT22;13090;53.422;7.670;2023-11-18T17:07:18;7.90;95.70
25108;DHT22;13090;53.422;7.670;2023-11-18T17:12:59;7.90;95.60
25108;DHT22;13090;53.422;7.670;2023-11-18T17:18:41;7.90;95.90
25108;DHT22;13090;53.422;7.670;2023-11-18T17:24:21;7.90;96.20
25108;DHT22;13090;53.422;7.670;2023-11-18T17:30:02;7.90;96.10
25108;DHT22;13090;53.422;7.670;2023-11-18T17:35:43;7.90;96.50
25108;DHT22;13090;53.422;7.670;2023-11-18T17:41:23;7.90;96.10
25108;DHT22;13090;53.422;7.670;2023-11-18T17:47:04;8.00;96.10
25108;DHT22;13090;53.422;7.670;2023-11-18T17:52:46;8.00;96.10
25108;DHT22;13090;53.422;7.670;2023-11-18T17:58:27;7.90;96.20
25108;DHT22;13090;53.422;7.670;2023-11-18T18:04:07;7.90;96.50
25108;DHT22;13090;53.422;7.670;2023-11-18T18:09:49;7.90;96.70
25108;DHT22;13090;53.422;7.670;2023-11-18T18:15:30;7.90;96.50
25108;DHT22;13090;53.422;7.670;2023-11-18T18:21:11;7.90;96.50
25108;DHT22;13090;53.422;7.670;2023-11-18T18:26:52;7.90;96.50
25108;DHT22;13090;53.422;7.670;2023-11-18T18:32:32;7.90;96.50
25108;DHT22;13090;53.422;7.670;2023-11-18T18:38:13;7.90;96.60
25108;DHT22;13090;53.422;7.670;2023-11-18T18:43:54;8.00;96.30
25108;DHT22;13090;53.422;7.670;2023-11-18T18:49:35;8.00;96.70
25108;DHT22;13090;53.422;7.670;2023-11-18T18:55:15;8.00;96.60
25108;DHT22;13090;53.422;7.670;2023-11-18T19:00:57;8.00;96.60
25108;DHT22;13090;53.422;7.670;2023-11-18T19:06:38;8.00;96.40
25108;DHT22;13090;53.422;7.670;2023-11-18T19:12:18;8.00;96.70
25108;DHT22;13090;53.422;7.670;2023-11-18T19:18:01;8.00;96.50
25108;DHT22;13090;53.422;7.670;2023-11-18T19:23:44;8.10;96.70
25108;DHT22;13090;53.422;7.670;2023-11-18T19:29:24;8.00;96.50
25108;DHT22;13090;53.422;7.670;2023-11-18T19:35:08;8.00;96.80
25108;DHT22;13090;53.422;7.670;2023-11-18T19:40:49;8.10;96.70
25108;DHT22;13090;53.422;7.670;2023-11-18T19:46:29;8.10;96.60
25108;DHT22;13090;53.422;7.670;2023-11-18T19:52:11;8.10;96.70
25108;DHT22;13090;53.422;7.670;2023-11-18T19:57:51;8.10;96.60
25108;DHT22;13090;53.422;7.670;2023-11-18T20:03:37;8.10;96.60
25108;DHT22;13090;53.422;7.670;2023-11-18T20:09:41;8.10;96.60
25108;DHT22;13090;53.422;7.670;2023-11-18T20:15:32;8.10;96.60
25108;DHT22;13090;53.422;7.670;2023-11-18T20:21:23;8.10;96.60
25108;DHT22;13090;53.422;7.670;2023-11-18T20:27:07;8.10;96.70
25108;DHT22;13090;53.422;7.670;2023-11-18T20:32:49;8.20;96.80
25108;DHT22;13090;53.422;7.670;2023-11-18T20:38:30;8.20;96.70
25108;DHT22;13090;53.422;7.670;2023-11-18T20:44:15;8.20;96.70
25108;DHT22;13090;53.422;7.670;2023-11-18T20:50:06;8.20;96.70
25108;DHT22;13090;53.422;7.670;2023-11-18T20:55:54;8.30;96.60
25108;DHT22;13090;53.422;7.670;2023-11-18T21:01:49;8.30;96.60
25108;DHT22;13090;53.422;7.670;2023-11-18T21:07:40;8.40;96.70
25108;DHT22;13090;53.422;7.670;2023-11-18T21:13:31;8.40;96.70
25108;DHT22;13090;53.422;7.670;2023-11-18T21:19:20;8.50;96.80
25108;DHT22;13090;53.422;7.670;2023-11-18T21:25:03;8.40;96.80
25108;DHT22;13090;53.422;7.670;2023-11-18T21:30:46;8.50;97.00
25108;DHT22;13090;53.422;7.670;2023-11-18T21:36:34;8.50;96.70
25108;DHT22;13090;53.422;7.670;2023-11-18T21:42:17;8.60;96.80
25108;DHT22;13090;53.422;7.670;2023-11-18T21:47:59;8.60;96.60
25108;DHT22;13090;53.422;7.670;2023-11-18T21:53:43;8.60;96.60
25108;DHT22;13090;53.422;7.670;2023-11-18T21:59:25;8.70;96.60
25108;DHT22;13090;53.422;7.670;2023-11-18T22:05:10;8.80;96.60
25108;DHT22;13090;53.422;7.670;2023-11-18T22:10:54;8.80;96.60
25108;DHT22;13090;53.422;7.670;2023-11-18T22:16:36;8.90;96.60
25108;DHT22;13090;53.422;7.670;2023-11-18T22:22:18;9.00;96.60
25108;DHT22;13090;53.422;7.670;2023-11-18T22:28:00;9.10;96.60
25108;DHT22;13090;53.422;7.670;2023-11-18T22:33:40;9.10;96.50
25108;DHT22;13090;53.422;7.670;2023-11-18T22:39:20;9.20;96.40
25108;DHT22;13090;53.422;7.670;2023-11-18T22:45:02;9.20;96.40
25108;DHT22;13090;53.422;7.670;2023-11-18T22:50:42;9.30;96.40
25108;DHT22;13090;53.422;7.670;2023-11-18T22:56:34;9.30;96.40
25108;DHT22;13090;53.422;7.670;2023-11-18T23:02:22;9.40;96.50
25108;DHT22;13090;53.422;7.670;2023-11-18T23:08:02;9.40;96.40
25108;DHT22;13090;53.422;7.670;2023-11-18T23:13:43;9.50;96.40
25108;DHT22;13090;53.422;7.670;2023-11-18T23:19:24;9.50;96.40
25108;DHT22;13090;53.422;7.670;2023-11-18T23:25:05;9.60;96.50
25108;DHT22;13090;53.422;7.670;2023-11-18T23:30:45;9.70;96.50
25108;DHT22;13090;53.422;7.670;2023-11-18T23:36:26;9.70;96.40
25108;DHT22;13090;53.422;7.670;2023-11-18T23:42:06;9.80;96.50
25108;DHT22;13090;53.422;7.670;2023-11-18T23:47:47;9.90;96.40
25108;DHT22;13090;53.422;7.670;2023-11-18T23:53:29;10.00;96.40
25108;DHT22;13090;53.422;7.670;2023-11-18T23:59:09;10.10;96.40
